sensor_id;sensor_type;location;lat;lon;timestamp;P1;durP1;ratioP1;P2;durP2;ratioP2
9449;SDS011;4763;48.370;10.874;2023-06-14T00:02:13;5.57;;;3.43;;
9449;SDS011;4763;48.370;10.874;2023-06-14T00:04:40;4.80;;;3.03;;
9449;SDS011;4763;48.370;10.874;2023-06-14T00:07:09;6.87;;;3.23;;
9449;SDS011;4763;48.370;10.874;2023-06-14T00:09:38;5.17;;;3.27;;
9449;SDS011;4763;48.370;10.874;2023-06-14T00:12:05;5.87;;;3.33;;
9449;SDS011;4763;48.370;10.874;2023-06-14T00:14:33;4.13;;;3.17;;
9449;SDS011;4763;48.370;10.874;2023-06-14T00:17:00;6.17;;;3.17;;
9449;SDS011;4763;48.370;10.874;2023-06-14T00:19:27;6.30;;;2.97;;
9449;SDS011;4763;48.370;10.874;2023-06-14T00:21:55;4.07;;;2.90;;
9449;SDS011;4763;48.370;10.874;2023-06-14T00:24:24;3.80;;;3.10;;
9449;SDS011;4763;48.370;10.874;2023-06-14T00:26:50;4.83;;;3.33;;
9449;SDS011;4763;48.370;10.874;2023-06-14T00:29:17;11.70;;;3.83;;
9449;SDS011;4763;48.370;10.874;2023-06-14T00:31:44;4.03;;;2.60;;
9449;SDS011;4763;48.370;10.874;2023-06-14T00:34:10;4.40;;;3.67;;
9449;SDS011;4763;48.370;10.874;2023-06-14T00:36:37;5.33;;;3.30;;
9449;SDS011;4763;48.370;10.874;2023-06-14T00:39:03;7.03;;;3.00;;
9449;SDS011;4763;48.370;10.874;2023-06-14T00:41:31;4.40;;;3.07;;
9449;SDS011;4763;48.370;10.874;2023-06-14T00:43:58;5.93;;;3.00;;
9449;SDS011;4763;48.370;10.874;2023-06-14T00:46:25;5.70;;;3.03;;
9449;SDS011;4763;48.370;10.874;2023-06-14T00:48:52;3.93;;;3.07;;
9449;SDS011;4763;48.370;10.874;2023-06-14T00:51:19;8.37;;;3.10;;
9449;SDS011;4763;48.370;10.874;2023-06-14T00:53:46;6.87;;;3.47;;
9449;SDS011;4763;48.370;10.874;2023-06-14T00:56:13;6.77;;;3.27;;
9449;SDS011;4763;48.370;10.874;2023-06-14T00:58:42;3.43;;;2.90;;
9449;SDS011;4763;48.370;10.874;2023-06-14T01:01:09;4.03;;;3.20;;
9449;SDS011;4763;48.370;10.874;2023-06-14T01:03:36;5.27;;;3.43;;
9449;SDS011;4763;48.370;10.874;2023-06-14T01:06:05;4.43;;;3.27;;
9449;SDS011;4763;48.370;10.874;2023-06-14T01:08:44;5.67;;;3.00;;
9449;SDS011;4763;48.370;10.874;2023-06-14T01:11:18;3.60;;;3.20;;
9449;SDS011;4763;48.370;10.874;2023-06-14T01:13:52;4.27;;;3.13;;
9449;SDS011;4763;48.370;10.874;2023-06-14T01:16:22;3.60;;;2.70;;
9449;SDS011;4763;48.370;10.874;2023-06-14T01:18:49;4.47;;;3.20;;
9449;SDS011;4763;48.370;10.874;2023-06-14T01:21:21;4.00;;;3.40;;
9449;SDS011;4763;48.370;10.874;2023-06-14T01:23:50;4.90;;;3.10;;
9449;SDS011;4763;48.370;10.874;2023-06-14T01:26:18;4.67;;;3.33;;
9449;SDS011;4763;48.370;10.874;2023-06-14T01:28:46;4.73;;;3.53;;
9449;SDS011;4763;48.370;10.874;2023-06-14T01:31:16;6.03;;;3.70;;
9449;SDS011;4763;48.370;10.874;2023-06-14T01:33:46;3.87;;;3.00;;
9449;SDS011;4763;48.370;10.874;2023-06-14T01:36:14;4.57;;;3.67;;
9449;SDS011;4763;48.370;10.874;2023-06-14T01:38:42;5.77;;;3.77;;
9449;SDS011;4763;48.370;10.874;2023-06-14T01:41:15;5.10;;;3.30;;
9449;SDS011;4763;48.370;10.874;2023-06-14T01:43:42;3.77;;;3.03;;
9449;SDS011;4763;48.370;10.874;2023-06-14T01:46:09;4.20;;;2.93;;
9449;SDS011;4763;48.370;10.874;2023-06-14T01:48:36;5.03;;;3.87;;
9449;SDS011;4763;48.370;10.874;2023-06-14T01:51:03;5.60;;;3.37;;
9449;SDS011;4763;48.370;10.874;2023-06-14T01:53:30;4.97;;;3.50;;
9449;SDS011;4763;48.370;10.874;2023-06-14T01:55:57;5.53;;;3.80;;
9449;SDS011;4763;48.370;10.874;2023-06-14T01:58:25;6.37;;;3.30;;
9449;SDS011;4763;48.370;10.874;2023-06-14T02:00:52;4.47;;;3.73;;
9449;SDS011;4763;48.370;10.874;2023-06-14T02:03:20;6.63;;;3.40;;
9449;SDS011;4763;48.370;10.874;2023-06-14T02:05:48;7.70;;;3.97;;
9449;SDS011;4763;48.370;10.874;2023-06-14T02:08:15;7.33;;;3.60;;
9449;SDS011;4763;48.370;10.874;2023-06-14T02:10:41;7.90;;;3.60;;
9449;SDS011;4763;48.370;10.874;2023-06-14T02:13:08;4.67;;;3.40;;
9449;SDS011;4763;48.370;10.874;2023-06-14T02:15:36;4.30;;;3.00;;
9449;SDS011;4763;48.370;10.874;2023-06-14T02:18:03;6.07;;;3.57;;
9449;SDS011;4763;48.370;10.874;2023-06-14T02:20:30;4.57;;;3.60;;
9449;SDS011;4763;48.370;10.874;2023-06-14T02:22:58;4.70;;;3.43;;
9449;SDS011;4763;48.370;10.874;2023-06-14T02:25:24;4.57;;;3.37;;
9449;SDS011;4763;48.370;10.874;2023-06-14T02:27:52;5.20;;;3.53;;
9449;SDS011;4763;48.370;10.874;2023-06-14T02:30:20;5.67;;;3.90;;
9449;SDS011;4763;48.370;10.874;2023-06-14T02:32:48;5.43;;;3.63;;
9449;SDS011;4763;48.370;10.874;2023-06-14T02:35:16;7.57;;;3.50;;
9449;SDS011;4763;48.370;10.874;2023-06-14T02:37:42;4.27;;;3.67;;
9449;SDS011;4763;48.370;10.874;2023-06-14T02:40:09;7.07;;;4.27;;
9449;SDS011;4763;48.370;10.874;2023-06-14T02:42:36;5.50;;;3.40;;
9449;SDS011;4763;48.370;10.874;2023-06-14T02:45:03;5.80;;;3.80;;
9449;SDS011;4763;48.370;10.874;2023-06-14T02:47:31;5.20;;;3.77;;
9449;SDS011;4763;48.370;10.874;2023-06-14T02:49:59;5.17;;;3.00;;
9449;SDS011;4763;48.370;10.874;2023-06-14T02:52:26;7.90;;;3.83;;
9449;SDS011;4763;48.370;10.874;2023-06-14T02:54:52;5.27;;;3.73;;
9449;SDS011;4763;48.370;10.874;2023-06-14T02:57:19;4.47;;;3.57;;
9449;SDS011;4763;48.370;10.874;2023-06-14T02:59:46;8.00;;;3.57;;
9449;SDS011;4763;48.370;10.874;2023-06-14T03:02:12;7.87;;;3.83;;
9449;SDS011;4763;48.370;10.874;2023-06-14T03:04:39;4.17;;;3.30;;
9449;SDS011;4763;48.370;10.874;2023-06-14T03:07:10;4.60;;;3.40;;
9449;SDS011;4763;48.370;10.874;2023-06-14T03:09:38;4.93;;;3.43;;
9449;SDS011;4763;48.370;10.874;2023-06-14T03:12:06;5.83;;;3.60;;
9449;SDS011;4763;48.370;10.874;2023-06-14T03:14:34;6.73;;;3.97;;
9449;SDS011;4763;48.370;10.874;2023-06-14T03:17:01;4.47;;;3.70;;
9449;SDS011;4763;48.370;10.874;2023-06-14T03:19:29;5.33;;;3.90;;
9449;SDS011;4763;48.370;10.874;2023-06-14T03:21:56;4.17;;;3.53;;
9449;SDS011;4763;48.370;10.874;2023-06-14T03:24:25;5.60;;;3.77;;
9449;SDS011;4763;48.370;10.874;2023-06-14T03:26:53;6.67;;;3.97;;
9449;SDS011;4763;48.370;10.874;2023-06-14T03:29:20;6.97;;;3.80;;
9449;SDS011;4763;48.370;10.874;2023-06-14T03:31:56;4.70;;;3.67;;
9449;SDS011;4763;48.370;10.874;2023-06-14T03:34:24;7.37;;;4.00;;
9449;SDS011;4763;48.370;10.874;2023-06-14T03:36:51;5.63;;;3.80;;
9449;SDS011;4763;48.370;10.874;2023-06-14T03:39:18;5.40;;;4.13;;
9449;SDS011;4763;48.370;10.874;2023-06-14T03:41:49;4.10;;;3.53;;
9449;SDS011;4763;48.370;10.874;2023-06-14T03:44:16;4.33;;;3.93;;
9449;SDS011;4763;48.370;10.874;2023-06-14T03:46:43;4.83;;;3.80;;
9449;SDS011;4763;48.370;10.874;2023-06-14T03:49:10;6.13;;;4.50;;
9449;SDS011;4763;48.370;10.874;2023-06-14T03:51:38;5.40;;;3.80;;
9449;SDS011;4763;48.370;10.874;2023-06-14T03:54:05;6.23;;;4.30;;
9449;SDS011;4763;48.370;10.874;2023-06-14T03:56:32;8.87;;;3.80;;
9449;SDS011;4763;48.370;10.874;2023-06-14T03:59:00;6.03;;;4.40;;
9449;SDS011;4763;48.370;10.874;2023-06-14T04:01:27;5.97;;;4.03;;
9449;SDS011;4763;48.370;10.874;2023-06-14T04:03:55;8.53;;;4.87;;
9449;SDS011;4763;48.370;10.874;2023-06-14T04:06:22;9.70;;;4.17;;
9449;SDS011;4763;48.370;10.874;2023-06-14T04:08:57;6.37;;;3.97;;
9449;SDS011;4763;48.370;10.874;2023-06-14T04:11:27;5.90;;;4.40;;
9449;SDS011;4763;48.370;10.874;2023-06-14T04:13:54;6.33;;;4.20;;
9449;SDS011;4763;48.370;10.874;2023-06-14T04:16:22;5.73;;;4.10;;
9449;SDS011;4763;48.370;10.874;2023-06-14T04:18:49;5.93;;;4.53;;
9449;SDS011;4763;48.370;10.874;2023-06-14T04:21:17;9.83;;;4.37;;
9449;SDS011;4763;48.370;10.874;2023-06-14T04:23:44;10.30;;;5.07;;
9449;SDS011;4763;48.370;10.874;2023-06-14T04:26:11;5.70;;;4.07;;
9449;SDS011;4763;48.370;10.874;2023-06-14T04:28:38;9.23;;;5.00;;
9449;SDS011;4763;48.370;10.874;2023-06-14T04:31:05;8.27;;;4.47;;
9449;SDS011;4763;48.370;10.874;2023-06-14T04:33:34;5.73;;;4.10;;
9449;SDS011;4763;48.370;10.874;2023-06-14T04:36:08;9.73;;;4.60;;
9449;SDS011;4763;48.370;10.874;2023-06-14T04:38:36;5.27;;;4.27;;
9449;SDS011;4763;48.370;10.874;2023-06-14T04:41:03;9.13;;;4.67;;
9449;SDS011;4763;48.370;10.874;2023-06-14T04:43:30;6.33;;;4.77;;
9449;SDS011;4763;48.370;10.874;2023-06-14T04:46:03;7.20;;;4.80;;
9449;SDS011;4763;48.370;10.874;2023-06-14T04:48:37;8.20;;;4.40;;
9449;SDS011;4763;48.370;10.874;2023-06-14T04:51:05;7.10;;;4.87;;
9449;SDS011;4763;48.370;10.874;2023-06-14T04:53:32;5.57;;;4.53;;
9449;SDS011;4763;48.370;10.874;2023-06-14T04:55:59;7.40;;;4.10;;
9449;SDS011;4763;48.370;10.874;2023-06-14T04:58:27;6.83;;;3.83;;
9449;SDS011;4763;48.370;10.874;2023-06-14T05:00:54;9.00;;;4.30;;
9449;SDS011;4763;48.370;10.874;2023-06-14T05:03:22;6.17;;;4.33;;
9449;SDS011;4763;48.370;10.874;2023-06-14T05:05:50;5.80;;;4.13;;
9449;SDS011;4763;48.370;10.874;2023-06-14T05:08:18;7.23;;;4.83;;
9449;SDS011;4763;48.370;10.874;2023-06-14T05:10:45;4.73;;;4.00;;
9449;SDS011;4763;48.370;10.874;2023-06-14T05:13:12;5.57;;;4.93;;
9449;SDS011;4763;48.370;10.874;2023-06-14T05:15:38;5.90;;;4.20;;
9449;SDS011;4763;48.370;10.874;2023-06-14T05:18:05;5.90;;;4.27;;
9449;SDS011;4763;48.370;10.874;2023-06-14T05:20:33;7.03;;;4.37;;
9449;SDS011;4763;48.370;10.874;2023-06-14T05:23:03;5.47;;;3.83;;
9449;SDS011;4763;48.370;10.874;2023-06-14T05:25:30;7.20;;;3.67;;
9449;SDS011;4763;48.370;10.874;2023-06-14T05:27:56;5.67;;;4.30;;
9449;SDS011;4763;48.370;10.874;2023-06-14T05:30:23;4.37;;;3.67;;
9449;SDS011;4763;48.370;10.874;2023-06-14T05:32:50;6.60;;;3.80;;
9449;SDS011;4763;48.370;10.874;2023-06-14T05:35:17;5.73;;;4.23;;
9449;SDS011;4763;48.370;10.874;2023-06-14T05:37:44;7.27;;;4.20;;
9449;SDS011;4763;48.370;10.874;2023-06-14T05:40:14;6.47;;;3.83;;
9449;SDS011;4763;48.370;10.874;2023-06-14T05:42:42;13.40;;;4.13;;
9449;SDS011;4763;48.370;10.874;2023-06-14T05:45:08;5.60;;;3.70;;
9449;SDS011;4763;48.370;10.874;2023-06-14T05:47:35;5.27;;;3.53;;
9449;SDS011;4763;48.370;10.874;2023-06-14T05:50:02;4.03;;;3.30;;
9449;SDS011;4763;48.370;10.874;2023-06-14T05:52:29;4.17;;;3.27;;
9449;SDS011;4763;48.370;10.874;2023-06-14T05:54:56;5.17;;;3.57;;
9449;SDS011;4763;48.370;10.874;2023-06-14T05:57:24;4.67;;;3.50;;
9449;SDS011;4763;48.370;10.874;2023-06-14T05:59:51;3.97;;;2.90;;
9449;SDS011;4763;48.370;10.874;2023-06-14T06:02:18;6.33;;;3.07;;
9449;SDS011;4763;48.370;10.874;2023-06-14T06:04:44;6.10;;;3.37;;
9449;SDS011;4763;48.370;10.874;2023-06-14T06:07:11;4.20;;;3.00;;
9449;SDS011;4763;48.370;10.874;2023-06-14T06:09:38;4.43;;;3.47;;
9449;SDS011;4763;48.370;10.874;2023-06-14T06:12:12;4.97;;;3.23;;
9449;SDS011;4763;48.370;10.874;2023-06-14T06:14:41;3.93;;;2.83;;
9449;SDS011;4763;48.370;10.874;2023-06-14T06:17:08;4.37;;;3.40;;
9449;SDS011;4763;48.370;10.874;2023-06-14T06:19:34;4.97;;;3.03;;
9449;SDS011;4763;48.370;10.874;2023-06-14T06:22:01;3.80;;;3.30;;
9449;SDS011;4763;48.370;10.874;2023-06-14T06:24:29;6.30;;;3.43;;
9449;SDS011;4763;48.370;10.874;2023-06-14T06:26:56;5.90;;;3.20;;
9449;SDS011;4763;48.370;10.874;2023-06-14T06:29:23;3.70;;;3.00;;
9449;SDS011;4763;48.370;10.874;2023-06-14T06:31:51;6.97;;;2.97;;
9449;SDS011;4763;48.370;10.874;2023-06-14T06:34:18;4.93;;;3.13;;
9449;SDS011;4763;48.370;10.874;2023-06-14T06:36:44;4.13;;;3.10;;
9449;SDS011;4763;48.370;10.874;2023-06-14T06:39:11;4.43;;;3.10;;
9449;SDS011;4763;48.370;10.874;2023-06-14T06:41:40;3.60;;;2.77;;
9449;SDS011;4763;48.370;10.874;2023-06-14T06:44:06;5.13;;;3.07;;
9449;SDS011;4763;48.370;10.874;2023-06-14T06:46:34;6.03;;;3.40;;
9449;SDS011;4763;48.370;10.874;2023-06-14T06:49:06;4.07;;;3.23;;
9449;SDS011;4763;48.370;10.874;2023-06-14T06:51:34;3.13;;;2.60;;
9449;SDS011;4763;48.370;10.874;2023-06-14T06:54:01;4.73;;;3.70;;
9449;SDS011;4763;48.370;10.874;2023-06-14T06:56:28;4.07;;;2.87;;
9449;SDS011;4763;48.370;10.874;2023-06-14T06:58:56;4.93;;;3.40;;
9449;SDS011;4763;48.370;10.874;2023-06-14T07:01:23;4.47;;;3.23;;
9449;SDS011;4763;48.370;10.874;2023-06-14T07:03:51;4.53;;;2.77;;
9449;SDS011;4763;48.370;10.874;2023-06-14T07:06:19;6.17;;;3.33;;
9449;SDS011;4763;48.370;10.874;2023-06-14T07:08:46;4.63;;;3.20;;
9449;SDS011;4763;48.370;10.874;2023-06-14T07:11:13;4.00;;;3.03;;
9449;SDS011;4763;48.370;10.874;2023-06-14T07:13:40;3.20;;;2.53;;
9449;SDS011;4763;48.370;10.874;2023-06-14T07:16:06;3.47;;;2.63;;
9449;SDS011;4763;48.370;10.874;2023-06-14T07:18:33;3.67;;;2.60;;
9449;SDS011;4763;48.370;10.874;2023-06-14T07:21:00;8.27;;;2.90;;
9449;SDS011;4763;48.370;10.874;2023-06-14T07:23:29;10.03;;;2.80;;
9449;SDS011;4763;48.370;10.874;2023-06-14T07:25:56;3.57;;;2.50;;
9449;SDS011;4763;48.370;10.874;2023-06-14T07:28:23;4.00;;;2.73;;
9449;SDS011;4763;48.370;10.874;2023-06-14T07:30:49;2.60;;;2.20;;
9449;SDS011;4763;48.370;10.874;2023-06-14T07:33:16;4.93;;;2.73;;
9449;SDS011;4763;48.370;10.874;2023-06-14T07:35:43;10.90;;;3.20;;
9449;SDS011;4763;48.370;10.874;2023-06-14T07:38:10;3.77;;;2.70;;
9449;SDS011;4763;48.370;10.874;2023-06-14T07:40:38;4.10;;;2.90;;
9449;SDS011;4763;48.370;10.874;2023-06-14T07:43:05;4.47;;;2.57;;
9449;SDS011;4763;48.370;10.874;2023-06-14T07:45:32;3.90;;;2.40;;
9449;SDS011;4763;48.370;10.874;2023-06-14T07:47:58;3.10;;;2.53;;
9449;SDS011;4763;48.370;10.874;2023-06-14T07:50:25;6.27;;;3.40;;
9449;SDS011;4763;48.370;10.874;2023-06-14T07:52:52;3.67;;;2.75;;
9449;SDS011;4763;48.370;10.874;2023-06-14T07:55:18;2.83;;;2.00;;
9449;SDS011;4763;48.370;10.874;2023-06-14T07:57:47;6.25;;;2.78;;
9449;SDS011;4763;48.370;10.874;2023-06-14T08:00:14;4.25;;;2.90;;
9449;SDS011;4763;48.370;10.874;2023-06-14T08:02:43;4.30;;;3.05;;
9449;SDS011;4763;48.370;10.874;2023-06-14T08:05:10;2.35;;;1.90;;
9449;SDS011;4763;48.370;10.874;2023-06-14T08:07:37;2.80;;;2.50;;
9449;SDS011;4763;48.370;10.874;2023-06-14T08:10:05;3.90;;;1.63;;
9449;SDS011;4763;48.370;10.874;2023-06-14T08:12:33;2.72;;;2.20;;
9449;SDS011;4763;48.370;10.874;2023-06-14T08:15:02;4.18;;;2.17;;
9449;SDS011;4763;48.370;10.874;2023-06-14T08:17:29;2.28;;;1.98;;
9449;SDS011;4763;48.370;10.874;2023-06-14T08:19:56;3.42;;;2.28;;
9449;SDS011;4763;48.370;10.874;2023-06-14T08:22:23;2.58;;;1.88;;
9449;SDS011;4763;48.370;10.874;2023-06-14T08:24:50;2.72;;;1.85;;
9449;SDS011;4763;48.370;10.874;2023-06-14T08:27:19;2.28;;;1.90;;
9449;SDS011;4763;48.370;10.874;2023-06-14T08:29:45;4.05;;;1.88;;
9449;SDS011;4763;48.370;10.874;2023-06-14T08:32:13;3.15;;;2.33;;
9449;SDS011;4763;48.370;10.874;2023-06-14T08:34:40;4.68;;;1.75;;
9449;SDS011;4763;48.370;10.874;2023-06-14T08:37:07;4.63;;;2.00;;
9449;SDS011;4763;48.370;10.874;2023-06-14T08:39:34;5.50;;;2.38;;
9449;SDS011;4763;48.370;10.874;2023-06-14T08:42:01;4.75;;;2.13;;
9449;SDS011;4763;48.370;10.874;2023-06-14T08:44:28;2.47;;;1.92;;
9449;SDS011;4763;48.370;10.874;2023-06-14T08:46:55;4.72;;;2.35;;
9449;SDS011;4763;48.370;10.874;2023-06-14T08:49:24;3.80;;;1.98;;
9449;SDS011;4763;48.370;10.874;2023-06-14T08:51:53;3.70;;;2.50;;
9449;SDS011;4763;48.370;10.874;2023-06-14T08:54:23;3.20;;;2.28;;
9449;SDS011;4763;48.370;10.874;2023-06-14T08:56:52;3.45;;;2.30;;
9449;SDS011;4763;48.370;10.874;2023-06-14T08:59:22;6.40;;;2.50;;
9449;SDS011;4763;48.370;10.874;2023-06-14T09:01:50;4.15;;;2.20;;
9449;SDS011;4763;48.370;10.874;2023-06-14T09:04:19;2.38;;;1.85;;
9449;SDS011;4763;48.370;10.874;2023-06-14T09:06:47;3.80;;;2.15;;
9449;SDS011;4763;48.370;10.874;2023-06-14T09:09:17;4.93;;;1.73;;
9449;SDS011;4763;48.370;10.874;2023-06-14T09:11:45;4.40;;;2.00;;
9449;SDS011;4763;48.370;10.874;2023-06-14T09:14:12;2.72;;;1.88;;
9449;SDS011;4763;48.370;10.874;2023-06-14T09:16:39;5.57;;;2.25;;
9449;SDS011;4763;48.370;10.874;2023-06-14T09:19:06;2.75;;;2.00;;
9449;SDS011;4763;48.370;10.874;2023-06-14T09:21:33;3.10;;;2.20;;
9449;SDS011;4763;48.370;10.874;2023-06-14T09:24:02;3.22;;;2.22;;
9449;SDS011;4763;48.370;10.874;2023-06-14T09:26:30;1.67;;;1.58;;
9449;SDS011;4763;48.370;10.874;2023-06-14T09:28:57;2.28;;;1.60;;
9449;SDS011;4763;48.370;10.874;2023-06-14T09:31:27;4.50;;;1.95;;
9449;SDS011;4763;48.370;10.874;2023-06-14T09:35:16;5.53;;;2.10;;
9449;SDS011;4763;48.370;10.874;2023-06-14T09:40:35;2.80;;;1.85;;
9449;SDS011;4763;48.370;10.874;2023-06-14T09:43:06;2.03;;;1.70;;
9449;SDS011;4763;48.370;10.874;2023-06-14T09:46:28;2.47;;;2.10;;
9449;SDS011;4763;48.370;10.874;2023-06-14T10:00:13;5.07;;;2.25;;
9449;SDS011;4763;48.370;10.874;2023-06-14T10:03:11;1.95;;;1.70;;
9449;SDS011;4763;48.370;10.874;2023-06-14T10:05:43;2.20;;;1.92;;
9449;SDS011;4763;48.370;10.874;2023-06-14T10:08:16;2.72;;;2.00;;
9449;SDS011;4763;48.370;10.874;2023-06-14T10:14:32;3.67;;;1.90;;
9449;SDS011;4763;48.370;10.874;2023-06-14T10:17:00;2.47;;;1.88;;
9449;SDS011;4763;48.370;10.874;2023-06-14T10:19:34;2.15;;;1.83;;
9449;SDS011;4763;48.370;10.874;2023-06-14T10:22:10;4.38;;;2.08;;
9449;SDS011;4763;48.370;10.874;2023-06-14T10:28:28;2.47;;;1.75;;
9449;SDS011;4763;48.370;10.874;2023-06-14T10:31:15;2.63;;;1.90;;
9449;SDS011;4763;48.370;10.874;2023-06-14T10:33:48;5.75;;;1.75;;
9449;SDS011;4763;48.370;10.874;2023-06-14T10:59:01;2.85;;;2.05;;
9449;SDS011;4763;48.370;10.874;2023-06-14T11:01:38;4.57;;;2.05;;
9449;SDS011;4763;48.370;10.874;2023-06-14T11:11:59;2.50;;;1.95;;
9449;SDS011;4763;48.370;10.874;2023-06-14T11:14:56;4.10;;;2.22;;
9449;SDS011;4763;48.370;10.874;2023-06-14T11:21:00;5.18;;;2.70;;
9449;SDS011;4763;48.370;10.874;2023-06-14T11:26:39;4.57;;;2.53;;
9449;SDS011;4763;48.370;10.874;2023-06-14T11:29:28;5.65;;;2.53;;
9449;SDS011;4763;48.370;10.874;2023-06-14T11:35:18;1.75;;;1.65;;
9449;SDS011;4763;48.370;10.874;2023-06-14T11:37:48;4.00;;;2.53;;
9449;SDS011;4763;48.370;10.874;2023-06-14T11:40:24;4.85;;;1.98;;
9449;SDS011;4763;48.370;10.874;2023-06-14T11:42:57;4.70;;;1.83;;
9449;SDS011;4763;48.370;10.874;2023-06-14T11:45:35;2.42;;;1.55;;
9449;SDS011;4763;48.370;10.874;2023-06-14T11:48:15;3.83;;;1.75;;
9449;SDS011;4763;48.370;10.874;2023-06-14T12:02:53;2.35;;;1.85;;
9449;SDS011;4763;48.370;10.874;2023-06-14T12:05:34;2.80;;;1.92;;
9449;SDS011;4763;48.370;10.874;2023-06-14T12:12:06;3.92;;;2.20;;
9449;SDS011;4763;48.370;10.874;2023-06-14T12:14:42;3.20;;;2.28;;
9449;SDS011;4763;48.370;10.874;2023-06-14T12:27:06;2.28;;;1.90;;
9449;SDS011;4763;48.370;10.874;2023-06-14T12:27:43;2.03;;;1.80;;
9449;SDS011;4763;48.370;10.874;2023-06-14T12:41:29;4.43;;;2.10;;
9449;SDS011;4763;48.370;10.874;2023-06-14T12:44:05;8.52;;;2.05;;
9449;SDS011;4763;48.370;10.874;2023-06-14T12:47:13;5.70;;;2.22;;
9449;SDS011;4763;48.370;10.874;2023-06-14T12:53:40;2.95;;;2.45;;
9449;SDS011;4763;48.370;10.874;2023-06-14T13:10:08;2.35;;;2.05;;
9449;SDS011;4763;48.370;10.874;2023-06-14T13:37:21;3.03;;;2.00;;
9449;SDS011;4763;48.370;10.874;2023-06-14T13:39:50;9.32;;;2.28;;
9449;SDS011;4763;48.370;10.874;2023-06-14T13:42:31;6.25;;;2.17;;
9449;SDS011;4763;48.370;10.874;2023-06-14T13:47:51;3.70;;;2.33;;
9449;SDS011;4763;48.370;10.874;2023-06-14T13:50:59;3.83;;;2.03;;
9449;SDS011;4763;48.370;10.874;2023-06-14T13:53:53;5.32;;;2.40;;
9449;SDS011;4763;48.370;10.874;2023-06-14T13:56:20;3.80;;;2.00;;
9449;SDS011;4763;48.370;10.874;2023-06-14T13:58:49;3.38;;;2.42;;
9449;SDS011;4763;48.370;10.874;2023-06-14T14:04:23;6.13;;;2.13;;
9449;SDS011;4763;48.370;10.874;2023-06-14T14:10:16;2.17;;;1.90;;
9449;SDS011;4763;48.370;10.874;2023-06-14T14:12:45;2.92;;;2.28;;
9449;SDS011;4763;48.370;10.874;2023-06-14T14:15:16;3.25;;;2.10;;
9449;SDS011;4763;48.370;10.874;2023-06-14T14:17:43;2.92;;;1.98;;
9449;SDS011;4763;48.370;10.874;2023-06-14T14:20:11;4.97;;;2.45;;
9449;SDS011;4763;48.370;10.874;2023-06-14T14:29:25;4.43;;;2.70;;
9449;SDS011;4763;48.370;10.874;2023-06-14T14:31:58;3.80;;;2.67;;
9449;SDS011;4763;48.370;10.874;2023-06-14T14:34:32;3.05;;;2.08;;
9449;SDS011;4763;48.370;10.874;2023-06-14T14:37:00;2.00;;;1.80;;
9449;SDS011;4763;48.370;10.874;2023-06-14T14:39:30;6.03;;;2.03;;
9449;SDS011;4763;48.370;10.874;2023-06-14T14:41:58;2.88;;;1.90;;
9449;SDS011;4763;48.370;10.874;2023-06-14T14:44:28;2.85;;;2.25;;
9449;SDS011;4763;48.370;10.874;2023-06-14T14:47:06;6.22;;;2.20;;
9449;SDS011;4763;48.370;10.874;2023-06-14T14:49:33;2.63;;;1.90;;
9449;SDS011;4763;48.370;10.874;2023-06-14T14:52:00;6.15;;;2.10;;
9449;SDS011;4763;48.370;10.874;2023-06-14T14:54:29;2.75;;;2.10;;
9449;SDS011;4763;48.370;10.874;2023-06-14T14:57:15;2.88;;;2.08;;
9449;SDS011;4763;48.370;10.874;2023-06-14T14:59:47;4.07;;;2.00;;
9449;SDS011;4763;48.370;10.874;2023-06-14T15:02:18;2.03;;;1.77;;
9449;SDS011;4763;48.370;10.874;2023-06-14T15:04:47;4.10;;;2.15;;
9449;SDS011;4763;48.370;10.874;2023-06-14T15:07:30;4.97;;;2.17;;
9449;SDS011;4763;48.370;10.874;2023-06-14T15:10:07;4.45;;;2.00;;
9449;SDS011;4763;48.370;10.874;2023-06-14T15:13:21;2.70;;;2.45;;
9449;SDS011;4763;48.370;10.874;2023-06-14T15:15:49;2.83;;;1.88;;
9449;SDS011;4763;48.370;10.874;2023-06-14T15:18:16;11.45;;;2.10;;
9449;SDS011;4763;48.370;10.874;2023-06-14T15:20:53;3.38;;;1.83;;
9449;SDS011;4763;48.370;10.874;2023-06-14T15:24:31;3.22;;;2.15;;
9449;SDS011;4763;48.370;10.874;2023-06-14T15:26:59;1.75;;;1.60;;
9449;SDS011;4763;48.370;10.874;2023-06-14T15:29:27;3.00;;;2.05;;
9449;SDS011;4763;48.370;10.874;2023-06-14T15:32:07;5.00;;;2.67;;
9449;SDS011;4763;48.370;10.874;2023-06-14T15:34:44;3.13;;;2.38;;
9449;SDS011;4763;48.370;10.874;2023-06-14T15:40:30;6.03;;;2.03;;
9449;SDS011;4763;48.370;10.874;2023-06-14T15:43:29;4.28;;;1.95;;
9449;SDS011;4763;48.370;10.874;2023-06-14T15:46:04;3.63;;;2.05;;
9449;SDS011;4763;48.370;10.874;2023-06-14T15:48:53;6.30;;;2.20;;
9449;SDS011;4763;48.370;10.874;2023-06-14T15:52:15;3.67;;;1.63;;
9449;SDS011;4763;48.370;10.874;2023-06-14T15:59:28;3.25;;;1.70;;
9449;SDS011;4763;48.370;10.874;2023-06-14T16:02:22;2.65;;;2.08;;
9449;SDS011;4763;48.370;10.874;2023-06-14T16:05:05;4.10;;;2.00;;
9449;SDS011;4763;48.370;10.874;2023-06-14T16:07:32;2.90;;;2.47;;
9449;SDS011;4763;48.370;10.874;2023-06-14T16:10:51;2.22;;;2.03;;
9449;SDS011;4763;48.370;10.874;2023-06-14T16:13:53;2.65;;;1.80;;
9449;SDS011;4763;48.370;10.874;2023-06-14T16:16:20;7.60;;;2.28;;
9449;SDS011;4763;48.370;10.874;2023-06-14T16:18:49;2.30;;;2.05;;
9449;SDS011;4763;48.370;10.874;2023-06-14T16:21:19;2.88;;;1.95;;
9449;SDS011;4763;48.370;10.874;2023-06-14T16:23:46;2.17;;;1.83;;
9449;SDS011;4763;48.370;10.874;2023-06-14T16:26:13;10.88;;;2.80;;
9449;SDS011;4763;48.370;10.874;2023-06-14T16:28:40;4.15;;;2.03;;
9449;SDS011;4763;48.370;10.874;2023-06-14T16:31:08;5.43;;;2.72;;
9449;SDS011;4763;48.370;10.874;2023-06-14T16:33:35;4.25;;;2.20;;
9449;SDS011;4763;48.370;10.874;2023-06-14T16:36:06;3.28;;;2.47;;
9449;SDS011;4763;48.370;10.874;2023-06-14T16:41:32;4.10;;;1.77;;
9449;SDS011;4763;48.370;10.874;2023-06-14T16:43:59;2.25;;;2.05;;
9449;SDS011;4763;48.370;10.874;2023-06-14T16:46:29;2.22;;;2.03;;
9449;SDS011;4763;48.370;10.874;2023-06-14T16:49:03;5.50;;;2.55;;
9449;SDS011;4763;48.370;10.874;2023-06-14T16:51:31;2.33;;;1.98;;
9449;SDS011;4763;48.370;10.874;2023-06-14T16:54:01;6.50;;;2.25;;
9449;SDS011;4763;48.370;10.874;2023-06-14T16:56:27;5.75;;;2.50;;
9449;SDS011;4763;48.370;10.874;2023-06-14T16:58:56;3.53;;;2.40;;
9449;SDS011;4763;48.370;10.874;2023-06-14T17:01:25;4.45;;;2.78;;
9449;SDS011;4763;48.370;10.874;2023-06-14T17:03:54;3.45;;;2.40;;
9449;SDS011;4763;48.370;10.874;2023-06-14T17:06:21;3.55;;;2.60;;
9449;SDS011;4763;48.370;10.874;2023-06-14T17:09:15;4.40;;;2.42;;
9449;SDS011;4763;48.370;10.874;2023-06-14T17:11:42;3.47;;;2.05;;
9449;SDS011;4763;48.370;10.874;2023-06-14T17:14:09;3.00;;;2.17;;
9449;SDS011;4763;48.370;10.874;2023-06-14T17:16:37;3.75;;;2.47;;
9449;SDS011;4763;48.370;10.874;2023-06-14T17:19:04;4.10;;;2.40;;
9449;SDS011;4763;48.370;10.874;2023-06-14T17:21:32;2.83;;;2.30;;
9449;SDS011;4763;48.370;10.874;2023-06-14T17:24:00;6.20;;;3.08;;
9449;SDS011;4763;48.370;10.874;2023-06-14T17:26:29;2.33;;;2.00;;
9449;SDS011;4763;48.370;10.874;2023-06-14T17:28:57;5.88;;;2.42;;
9449;SDS011;4763;48.370;10.874;2023-06-14T17:31:24;5.35;;;2.33;;
9449;SDS011;4763;48.370;10.874;2023-06-14T17:33:51;3.55;;;2.28;;
9449;SDS011;4763;48.370;10.874;2023-06-14T17:36:17;4.57;;;2.10;;
9449;SDS011;4763;48.370;10.874;2023-06-14T17:38:44;13.75;;;2.97;;
9449;SDS011;4763;48.370;10.874;2023-06-14T17:41:11;2.13;;;1.92;;
9449;SDS011;4763;48.370;10.874;2023-06-14T17:43:40;6.55;;;2.50;;
9449;SDS011;4763;48.370;10.874;2023-06-14T17:46:07;3.13;;;2.30;;
9449;SDS011;4763;48.370;10.874;2023-06-14T17:48:34;3.63;;;2.42;;
9449;SDS011;4763;48.370;10.874;2023-06-14T17:51:04;5.13;;;2.42;;
9449;SDS011;4763;48.370;10.874;2023-06-14T17:53:34;2.28;;;2.00;;
9449;SDS011;4763;48.370;10.874;2023-06-14T17:56:02;5.15;;;2.30;;
9449;SDS011;4763;48.370;10.874;2023-06-14T17:58:30;3.05;;;2.03;;
9449;SDS011;4763;48.370;10.874;2023-06-14T18:01:03;3.03;;;2.50;;
9449;SDS011;4763;48.370;10.874;2023-06-14T18:03:31;4.85;;;2.33;;
9449;SDS011;4763;48.370;10.874;2023-06-14T18:05:58;4.72;;;2.15;;
9449;SDS011;4763;48.370;10.874;2023-06-14T18:08:25;3.30;;;2.42;;